Terminal Aerodrome Forecast
Issued by NWS

Home | Current Version | Previous Version | Text Only | Print | Product List | Glossary Off
Versions: 1 2 3 4 5 6 7 8 9 10 11 12 13 14 15 16

000
FTUS43 KICT 071300 AAA
TAFSLN
TAF AMD
KSLN 071314Z 0713/0812 14009KT P6SM VCTS SCT120CB BKN250
      TEMPO 0713/0715 -TSRA
     FM071500 15013KT P6SM SCT120
     FM071900 19013KT P6SM SCT090
     FM080200 22008KT P6SM SCT090 BKN250
     FM080600 01011KT P6SM VCTS BKN080CB=

USA.gov is the U.S. government's official web portal to all federal, state and local government web resources and services.